Time;durP1;ratioP1;P1;durP2;ratioP2;P2;SDS_P1;SDS_P2;PMS_P1;PMS_P2;Temp;Humidity;BMP_temperature;BMP_pressure;BME280_temperature;BME280_humidity;BME280_pressure;Samples;Min_cycle;Max_cycle;Signal;HPM_P1;HPM_P2
2022/01/25 00:28:16;;;;;;;;;;;;;;;;;;5140584;27;27672;-95
2022/01/25 00:30:58;;;;;;;;;;;;;;;;;;5139944;27;28337;-95
2022/01/25 00:33:23;;;;;;;;;;;;;;;;;;5122597;27;29987;-95
2022/01/25 00:35:48;;;;;;;;;;;;;;;;;;5125976;27;28484;-94
2022/01/25 00:38:13;;;;;;;;;;;;;;;;;;5125389;27;28502;-95
2022/01/25 00:40:38;;;;;;;;;;;;;;;;;;5125660;27;28561;-94
2022/01/25 00:43:03;;;;;;;;;;;;;;;;;;5124804;27;29987;-95
2022/01/25 00:45:29;;;;;;;;;;;;;;;;;;5124486;27;32269;-95
2022/01/25 00:47:54;;;;;;;;;;;;;;;;;;5124226;27;28334;-94
2022/01/25 00:50:19;;;;;;;;;;;;;;;;;;5124941;27;28704;-95
2022/01/25 00:55:09;;;;;;;;;;;;;;;;;;5142767;27;28247;-95
2022/01/25 00:57:35;;;;;;;;;;;;;;;;;;5125018;27;28288;-93
2022/01/25 01:00:00;;;;;;;;;;;;;;;;;;5124417;27;35156;-94
2022/01/25 01:02:25;;;;;;;;;;;;;;;;;;5125435;27;29795;-94
2022/01/25 01:04:50;;;;;;;;;;;;;;;;;;5124347;27;28440;-94
2022/01/25 01:07:16;;;;;;;;;;;;;;;;;;5125183;27;28284;-94
2022/01/25 01:09:43;;;;;;;;;;;;;;;;;;5124279;27;27910;-95
2022/01/25 01:12:14;;;;;;;;;;;;;;;;;;5125311;27;30041;-94
2022/01/25 01:33:54;;;;;;;;;;;;;;;;;;5144350;27;28525;-95
2022/01/25 01:37:01;;;;;;;;;;;;;;;;;;5143221;27;28351;-95
2022/01/25 01:40:09;;;;;;;;;;;;;;;;;;5143694;27;28302;-94
2022/01/25 01:42:38;;;;;;;;;;;;;;;;;;5134902;27;27727;-95
2022/01/25 01:47:36;;;;;;;;;;;;;;;;;;5143508;27;28291;-94
2022/01/25 01:50:08;;;;;;;;;;;;;;;;;;5125159;27;28355;-95
2022/01/25 01:52:33;;;;;;;;;;;;;;;;;;5125585;27;28052;-94
2022/01/25 01:54:58;;;;;;;;;;;;;;;;;;5124749;27;30241;-95
2022/01/25 01:57:23;;;;;;;;;;;;;;;;;;5125313;27;28562;-94
2022/01/25 01:59:48;;;;;;;;;;;;;;;;;;5123952;27;28383;-94
2022/01/25 02:02:13;;;;;;;;;;;;;;;;;;5125228;27;28053;-95
2022/01/25 02:04:38;;;;;;;;;;;;;;;;;;5159524;27;33614;-94
2022/01/25 02:07:03;;;;;;;;;;;;;;;;;;5164150;27;28501;-95
2022/01/25 02:09:28;;;;;;;;;;;;;;;;;;5145142;27;28331;-94
2022/01/25 02:11:53;;;;;;;;;;;;;;;;;;5144834;27;35180;-95
2022/01/25 02:14:19;;;;;;;;;;;;;;;;;;5140573;27;30171;-95
2022/01/25 02:17:06;;;;;;;;;;;;;;;;;;5122844;27;28338;-95
2022/01/25 02:22:34;;;;;;;;;;;;;;;;;;5141889;27;28401;-94
2022/01/25 02:24:59;;;;;;;;;;;;;;;;;;5140642;27;30014;-95
2022/01/25 02:27:24;;;;;;;;;;;;;;;;;;5140567;27;28340;-95
2022/01/25 02:29:49;;;;;;;;;;;;;;;;;;5133623;27;28490;-95
2022/01/25 02:32:15;;;;;;;;;;;;;;;;;;5122802;27;28268;-95
2022/01/25 02:34:40;;;;;;;;;;;;;;;;;;5123599;27;29620;-95
2022/01/25 02:37:05;;;;;;;;;;;;;;;;;;5123216;27;28181;-95
2022/01/25 02:39:30;;;;;;;;;;;;;;;;;;5123198;27;28424;-94
2022/01/25 02:41:55;;;;;;;;;;;;;;;;;;5123657;27;35226;-94
2022/01/25 02:44:25;;;;;;;;;;;;;;;;;;5121947;27;29804;-94
2022/01/25 02:49:17;;;;;;;;;;;;;;;;;;5141586;27;27725;-94
2022/01/25 02:51:43;;;;;;;;;;;;;;;;;;5123320;27;28385;-95
2022/01/25 02:54:08;;;;;;;;;;;;;;;;;;5122534;27;29929;-93
2022/01/25 02:56:34;;;;;;;;;;;;;;;;;;5123038;27;29181;-94
2022/01/25 02:58:59;;;;;;;;;;;;;;;;;;5122775;27;28416;-94
2022/01/25 03:01:24;;;;;;;;;;;;;;;;;;5123277;27;28475;-95
2022/01/25 03:03:50;;;;;;;;;;;;;;;;;;5123453;27;30907;-95
2022/01/25 03:06:15;;;;;;;;;;;;;;;;;;5122609;27;28398;-94
2022/01/25 03:08:40;;;;;;;;;;;;;;;;;;5123680;27;28475;-94
2022/01/25 03:11:05;;;;;;;;;;;;;;;;;;5123391;27;28430;-94
2022/01/25 03:13:47;;;;;;;;;;;;;;;;;;5122626;27;33688;-95
2022/01/25 03:16:18;;;;;;;;;;;;;;;;;;5123606;27;28317;-95
2022/01/25 03:18:46;;;;;;;;;;;;;;;;;;5123042;27;28279;-95
2022/01/25 03:21:34;;;;;;;;;;;;;;;;;;5122891;27;28035;-94
2022/01/25 03:23:59;;;;;;;;;;;;;;;;;;5123371;27;29928;-93
2022/01/25 03:26:24;;;;;;;;;;;;;;;;;;5122465;27;28496;-95
2022/01/25 03:28:49;;;;;;;;;;;;;;;;;;5122968;27;28441;-95
2022/01/25 03:31:14;;;;;;;;;;;;;;;;;;5123787;27;28453;-94
2022/01/25 03:33:39;;;;;;;;;;;;;;;;;;5122342;27;29701;-94
2022/01/25 03:36:05;;;;;;;;;;;;;;;;;;5123469;27;28512;-94
2022/01/25 03:38:30;;;;;;;;;;;;;;;;;;5122538;27;28365;-95
2022/01/25 03:40:55;;;;;;;;;;;;;;;;;;5123986;27;28374;-95
2022/01/25 03:43:20;;;;;;;;;;;;;;;;;;5123686;27;29939;-96
2022/01/25 03:45:57;;;;;;;;;;;;;;;;;;5121992;27;28511;-94
2022/01/25 03:50:47;;;;;;;;;;;;;;;;;;5140728;27;28228;-94
2022/01/25 03:53:13;;;;;;;;;;;;;;;;;;5122413;27;29693;-94
2022/01/25 03:55:38;;;;;;;;;;;;;;;;;;5121930;27;29223;-95
2022/01/25 03:58:03;;;;;;;;;;;;;;;;;;5122452;27;28263;-95
2022/01/25 04:00:28;;;;;;;;;;;;;;;;;;5122032;27;27936;-95
2022/01/25 04:03:03;;;;;;;;;;;;;;;;;;5122866;27;29645;-93
2022/01/25 04:05:38;;;;;;;;;;;;;;;;;;5122400;27;28694;-94
2022/01/25 04:08:03;;;;;;;;;;;;;;;;;;5123441;27;28275;-94
2022/01/25 04:10:28;;;;;;;;;;;;;;;;;;5125728;27;27795;-95
2022/01/25 04:12:54;;;;;;;;;;;;;;;;;;5125375;27;30235;-95
2022/01/25 04:15:19;;;;;;;;;;;;;;;;;;5125830;27;28434;-95
2022/01/25 04:17:49;;;;;;;;;;;;;;;;;;5125121;27;27743;-94
2022/01/25 04:20:20;;;;;;;;;;;;;;;;;;5125982;27;28449;-95
2022/01/25 04:25:29;;;;;;;;;;;;;;;;;;5144495;27;28372;-95
2022/01/25 04:27:54;;;;;;;;;;;;;;;;;;5126314;27;28468;-94
2022/01/25 04:30:19;;;;;;;;;;;;;;;;;;5125842;27;28568;-94
2022/01/25 04:32:48;;;;;;;;;;;;;;;;;;5127443;27;30725;-94
2022/01/25 04:36:22;;;;;;;;;;;;;;;;;;5125701;27;28396;-94
2022/01/25 04:49:15;;;;;;;;;;;;;;;;;;5145496;27;28387;-94
2022/01/25 04:54:33;;;;;;;;;;;;;;;;;;5142835;27;29017;-93
2022/01/25 04:57:17;;;;;;;;;;;;;;;;;;5123606;27;28524;-93
2022/01/25 05:02:16;;;;;;;;;;;;;;;;;;5143245;27;28476;-94
2022/01/25 05:04:54;;;;;;;;;;;;;;;;;;5126489;27;30256;-94
2022/01/25 05:07:31;;;;;;;;;;;;;;;;;;5126080;27;28781;-95
2022/01/25 05:09:57;;;;;;;;;;;;;;;;;;5125085;27;28359;-95
2022/01/25 05:12:34;;;;;;;;;;;;;;;;;;5125850;27;28526;-92
2022/01/25 05:15:06;;;;;;;;;;;;;;;;;;5104826;27;30026;-94
2022/01/25 05:17:41;;;;;;;;;;;;;;;;;;5138354;27;28461;-94
2022/01/25 05:22:51;;;;;;;;;;;;;;;;;;5122723;27;28500;-95
2022/01/25 05:25:16;;;;;;;;;;;;;;;;;;5139918;27;29843;-94
2022/01/25 05:27:41;;;;;;;;;;;;;;;;;;5143628;27;29309;-95
2022/01/25 05:30:06;;;;;;;;;;;;;;;;;;5125368;27;28424;-95
2022/01/25 05:32:33;;;;;;;;;;;;;;;;;;5125915;27;28498;-95
2022/01/25 05:34:59;;;;;;;;;;;;;;;;;;5124360;27;29955;-94
2022/01/25 05:37:24;;;;;;;;;;;;;;;;;;5125854;27;28390;-95
2022/01/25 05:39:51;;;;;;;;;;;;;;;;;;5123710;27;28310;-93
2022/01/25 05:44:58;;;;;;;;;;;;;;;;;;5140147;27;28405;-91
2022/01/25 05:47:31;;;;;;;;;;;;;;;;;;5121643;27;28326;-92
2022/01/25 05:49:56;;;;;;;;;;;;;;;;;;5123564;27;28485;-95
2022/01/25 05:52:21;;;;;;;;;;;;;;;;;;5125420;27;27851;-94
2022/01/25 05:54:46;;;;;;;;;;;;;;;;;;5124527;27;29971;-93
2022/01/25 05:57:11;;;;;;;;;;;;;;;;;;5125633;27;28498;-95
2022/01/25 05:59:37;;;;;;;;;;;;;;;;;;5124064;27;28480;-93
2022/01/25 06:02:02;;;;;;;;;;;;;;;;;;5123889;27;28451;-94
2022/01/25 06:04:28;;;;;;;;;;;;;;;;;;5125186;27;30454;-90
2022/01/25 06:06:53;;;;;;;;;;;;;;;;;;5139552;27;28508;-92
2022/01/25 06:09:18;;;;;;;;;;;;;;;;;;5121693;27;27832;-89
2022/01/25 06:11:43;;;;;;;;;;;;;;;;;;5141101;27;28363;-92
2022/01/25 06:14:08;;;;;;;;;;;;;;;;;;5120866;27;30059;-95
2022/01/25 06:16:33;;;;;;;;;;;;;;;;;;5127728;27;31412;-95
2022/01/25 06:18:58;;;;;;;;;;;;;;;;;;5123117;27;28323;-95
2022/01/25 06:21:23;;;;;;;;;;;;;;;;;;5123892;27;27839;-92
2022/01/25 06:23:48;;;;;;;;;;;;;;;;;;5124382;27;29771;-95
2022/01/25 06:26:13;;;;;;;;;;;;;;;;;;5130181;27;28672;-95
2022/01/25 06:28:39;;;;;;;;;;;;;;;;;;5129327;27;28385;-95
2022/01/25 06:31:04;;;;;;;;;;;;;;;;;;5134112;27;27983;-94
2022/01/25 06:33:29;;;;;;;;;;;;;;;;;;5134539;27;29992;-95
2022/01/25 06:35:56;;;;;;;;;;;;;;;;;;5124288;27;28646;-95
2022/01/25 06:38:21;;;;;;;;;;;;;;;;;;5125186;27;27876;-96
2022/01/25 06:40:46;;;;;;;;;;;;;;;;;;5128554;27;27952;-93
2022/01/25 06:43:12;;;;;;;;;;;;;;;;;;5152410;27;28502;-95
2022/01/25 06:45:40;;;;;;;;;;;;;;;;;;5131829;27;28267;-95
2022/01/25 06:48:05;;;;;;;;;;;;;;;;;;5125253;27;28252;-95
2022/01/25 06:50:30;;;;;;;;;;;;;;;;;;5127513;27;27822;-95
2022/01/25 06:52:56;;;;;;;;;;;;;;;;;;5127165;27;29534;-95
2022/01/25 06:55:21;;;;;;;;;;;;;;;;;;5127733;27;28200;-96
2022/01/25 06:57:46;;;;;;;;;;;;;;;;;;5121360;27;28225;-91
2022/01/25 07:00:11;;;;;;;;;;;;;;;;;;5119895;27;28347;-90
2022/01/25 07:02:36;;;;;;;;;;;;;;;;;;5138197;27;28368;-92
2022/01/25 07:05:01;;;;;;;;;;;;;;;;;;5122387;27;28342;-96
2022/01/25 07:07:26;;;;;;;;;;;;;;;;;;5122629;27;28310;-94
2022/01/25 07:09:52;;;;;;;;;;;;;;;;;;5122896;27;28498;-94
2022/01/25 07:12:17;;;;;;;;;;;;;;;;;;5122630;27;30264;-94
2022/01/25 07:14:42;;;;;;;;;;;;;;;;;;5122039;27;28602;-93
2022/01/25 07:17:07;;;;;;;;;;;;;;;;;;5124303;27;28434;-94
2022/01/25 07:19:32;;;;;;;;;;;;;;;;;;5125291;27;28207;-95
2022/01/25 07:21:57;;;;;;;;;;;;;;;;;;5124999;27;30919;-96
2022/01/25 07:24:22;;;;;;;;;;;;;;;;;;5124739;27;29479;-94
2022/01/25 07:26:47;;;;;;;;;;;;;;;;;;5124571;27;28558;-94
2022/01/25 07:29:12;;;;;;;;;;;;;;;;;;5124061;27;28407;-94
2022/01/25 07:31:37;;;;;;;;;;;;;;;;;;5124595;27;30029;-94
2022/01/25 07:34:03;;;;;;;;;;;;;;;;;;5125098;27;28433;-94
2022/01/25 07:36:28;;;;;;;;;;;;;;;;;;5124453;27;28365;-94
2022/01/25 07:38:53;;;;;;;;;;;;;;;;;;5125058;27;28346;-95
2022/01/25 07:41:18;;;;;;;;;;;;;;;;;;5126411;27;29933;-95
2022/01/25 07:43:43;;;;;;;;;;;;;;;;;;5128284;27;27838;-94
2022/01/25 07:46:09;;;;;;;;;;;;;;;;;;5127567;27;27862;-94
2022/01/25 07:48:34;;;;;;;;;;;;;;;;;;5127252;27;28492;-94
2022/01/25 07:50:59;;;;;;;;;;;;;;;;;;5126966;27;31185;-94
2022/01/25 07:53:24;;;;;;;;;;;;;;;;;;5127448;27;29299;-95
2022/01/25 07:55:49;;;;;;;;;;;;;;;;;;5127283;27;27748;-94
2022/01/25 07:58:14;;;;;;;;;;;;;;;;;;5126577;27;28342;-94
2022/01/25 08:00:40;;;;;;;;;;;;;;;;;;5125694;27;29849;-93
2022/01/25 08:03:05;;;;;;;;;;;;;;;;;;5125972;27;28678;-94
2022/01/25 08:05:30;;;;;;;;;;;;;;;;;;5126672;27;28355;-94
2022/01/25 08:07:55;;;;;;;;;;;;;;;;;;5126162;27;28342;-93
2022/01/25 08:10:20;;;;;;;;;;;;;;;;;;5126382;27;30557;-94
2022/01/25 08:12:45;;;;;;;;;;;;;;;;;;5126593;27;28453;-95
2022/01/25 08:15:11;;;;;;;;;;;;;;;;;;5127042;27;28459;-94
2022/01/25 08:17:36;;;;;;;;;;;;;;;;;;5127103;27;28497;-95
2022/01/25 08:20:01;;;;;;;;;;;;;;;;;;5131020;27;30686;-95
2022/01/25 08:22:26;;;;;;;;;;;;;;;;;;5139932;27;28417;-95
2022/01/25 08:24:51;;;;;;;;;;;;;;;;;;5128845;27;28475;-94
2022/01/25 08:27:20;;;;;;;;;;;;;;;;;;5123864;27;27981;-91
2022/01/25 08:29:45;;;;;;;;;;;;;;;;;;5157118;27;29795;-89
2022/01/25 08:32:10;;;;;;;;;;;;;;;;;;5145828;27;28285;-87
2022/01/25 08:34:36;;;;;;;;;;;;;;;;;;5144191;27;28441;-87
2022/01/25 08:37:01;;;;;;;;;;;;;;;;;;5160476;27;27729;-87
2022/01/25 08:39:28;;;;;;;;;;;;;;;;;;5161284;27;29113;-91
2022/01/25 08:41:53;;;;;;;;;;;;;;;;;;5141455;27;28488;-87
2022/01/25 08:44:18;;;;;;;;;;;;;;;;;;5155386;27;28464;-88
2022/01/25 08:46:43;;;;;;;;;;;;;;;;;;5140334;27;28366;-90
2022/01/25 08:49:10;;;;;;;;;;;;;;;;;;5140145;27;28494;-92
2022/01/25 08:51:35;;;;;;;;;;;;;;;;;;5138222;27;28483;-87
2022/01/25 08:54:00;;;;;;;;;;;;;;;;;;5137448;27;28376;-86
2022/01/25 08:56:25;;;;;;;;;;;;;;;;;;5139392;27;28466;-88
2022/01/25 08:58:50;;;;;;;;;;;;;;;;;;5139003;27;29115;-89
2022/01/25 09:01:15;;;;;;;;;;;;;;;;;;5139325;27;28395;-89
2022/01/25 09:03:40;;;;;;;;;;;;;;;;;;5138971;27;27820;-88
2022/01/25 09:06:05;;;;;;;;;;;;;;;;;;5138869;27;28382;-88
2022/01/25 09:08:31;;;;;;;;;;;;;;;;;;5138810;27;28396;-87
2022/01/25 09:11:03;;;;;;;;;;;;;;;;;;5138993;27;28447;-87
2022/01/25 09:13:29;;;;;;;;;;;;;;;;;;5138930;27;27814;-87
2022/01/25 09:15:54;;;;;;;;;;;;;;;;;;5139064;27;28470;-88
2022/01/25 09:18:19;;;;;;;;;;;;;;;;;;5139191;27;28399;-90
2022/01/25 09:20:44;;;;;;;;;;;;;;;;;;5138879;27;28413;-88
2022/01/25 09:23:10;;;;;;;;;;;;;;;;;;5139025;27;28749;-88
2022/01/25 09:25:35;;;;;;;;;;;;;;;;;;5138192;27;28507;-88
2022/01/25 09:28:00;;;;;;;;;;;;;;;;;;5138613;27;28526;-88
2022/01/25 09:30:25;;;;;;;;;;;;;;;;;;5119530;27;28440;-89
2022/01/25 09:32:50;;;;;;;;;;;;;;;;;;5138637;27;28417;-88
2022/01/25 09:35:15;;;;;;;;;;;;;;;;;;5138803;27;28399;-88
2022/01/25 09:37:41;;;;;;;;;;;;;;;;;;5138604;27;28381;-90
2022/01/25 09:40:06;;;;;;;;;;;;;;;;;;5138549;27;28447;-90
2022/01/25 09:42:31;;;;;;;;;;;;;;;;;;5119858;27;28271;-88
2022/01/25 09:44:56;;;;;;;;;;;;;;;;;;5138303;27;28459;-89
2022/01/25 09:47:21;;;;;;;;;;;;;;;;;;5138412;27;28605;-90
2022/01/25 09:49:46;;;;;;;;;;;;;;;;;;5119709;27;28379;-90
2022/01/25 09:52:11;;;;;;;;;;;;;;;;;;5137087;27;28489;-87
2022/01/25 09:54:37;;;;;;;;;;;;;;;;;;5138458;27;27817;-89
2022/01/25 09:57:02;;;;;;;;;;;;;;;;;;5137958;27;28765;-89
2022/01/25 09:59:27;;;;;;;;;;;;;;;;;;5138164;27;28330;-89
2022/01/25 10:01:52;;;;;;;;;;;;;;;;;;5137820;27;28243;-88
2022/01/25 10:04:17;;;;;;;;;;;;;;;;;;5138292;27;27929;-89
2022/01/25 10:06:42;;;;;;;;;;;;;;;;;;5136675;27;28359;-89
2022/01/25 10:09:07;;;;;;;;;;;;;;;;;;5119482;27;29169;-88
2022/01/25 10:11:32;;;;;;;;;;;;;;;;;;5119604;27;28408;-89
2022/01/25 10:13:58;;;;;;;;;;;;;;;;;;5137691;27;35137;-89
2022/01/25 10:16:24;;;;;;;;;;;;;;;;;;5119103;27;29824;-90
2022/01/25 10:18:50;;;;;;;;;;;;;;;;;;5119281;27;29211;-90
2022/01/25 10:21:15;;;;;;;;;;;;;;;;;;5146722;27;28254;-90
2022/01/25 10:23:41;;;;;;;;;;;;;;;;;;5159264;27;27782;-90
2022/01/25 10:26:06;;;;;;;;;;;;;;;;;;5139776;27;30812;-90
2022/01/25 10:28:31;;;;;;;;;;;;;;;;;;5140262;27;28664;-91
2022/01/25 10:30:57;;;;;;;;;;;;;;;;;;5159509;27;28425;-90
2022/01/25 10:33:23;;;;;;;;;;;;;;;;;;5141029;27;28445;-89
2022/01/25 10:35:48;;;;;;;;;;;;;;;;;;5158168;27;28448;-90
2022/01/25 10:38:14;;;;;;;;;;;;;;;;;;5158451;27;28021;-90
2022/01/25 10:40:39;;;;;;;;;;;;;;;;;;5158440;27;28966;-89
2022/01/25 10:43:04;;;;;;;;;;;;;;;;;;5158610;27;28414;-90
2022/01/25 10:45:29;;;;;;;;;;;;;;;;;;5139564;27;30854;-89
2022/01/25 10:47:56;;;;;;;;;;;;;;;;;;5158359;27;28526;-89
2022/01/25 10:50:21;;;;;;;;;;;;;;;;;;5139504;27;28447;-87
2022/01/25 10:52:46;;;;;;;;;;;;;;;;;;5158431;27;28369;-88
2022/01/25 10:55:11;;;;;;;;;;;;;;;;;;5158335;27;29151;-87
2022/01/25 10:57:36;;;;;;;;;;;;;;;;;;5158170;27;28256;-88
2022/01/25 11:00:01;;;;;;;;;;;;;;;;;;5139565;27;28311;-87
2022/01/25 11:02:27;;;;;;;;;;;;;;;;;;5158300;27;28247;-89
2022/01/25 11:04:52;;;;;;;;;;;;;;;;;;5158057;27;29564;-90
2022/01/25 11:07:18;;;;;;;;;;;;;;;;;;5158125;27;28422;-90
2022/01/25 11:09:45;;;;;;;;;;;;;;;;;;5158262;27;28297;-89
2022/01/25 11:12:12;;;;;;;;;;;;;;;;;;5158223;27;28246;-90
2022/01/25 11:14:57;;;;;;;;;;;;;;;;;;5138922;27;30115;-90
2022/01/25 11:17:22;;;;;;;;;;;;;;;;;;5139444;27;28398;-90
2022/01/25 11:19:47;;;;;;;;;;;;;;;;;;5158527;27;28495;-89
2022/01/25 11:22:21;;;;;;;;;;;;;;;;;;5139552;27;28419;-90
2022/01/25 11:24:46;;;;;;;;;;;;;;;;;;5157655;27;28529;-90
2022/01/25 11:27:13;;;;;;;;;;;;;;;;;;5157772;27;28321;-89
2022/01/25 11:29:38;;;;;;;;;;;;;;;;;;5157771;27;28429;-89
2022/01/25 11:32:03;;;;;;;;;;;;;;;;;;5158265;27;28373;-90
2022/01/25 11:34:28;;;;;;;;;;;;;;;;;;5157584;27;28590;-90
2022/01/25 11:36:53;;;;;;;;;;;;;;;;;;5139105;27;28435;-91
2022/01/25 11:39:18;;;;;;;;;;;;;;;;;;5157681;27;28412;-91
2022/01/25 11:41:44;;;;;;;;;;;;;;;;;;5158092;27;28409;-89
2022/01/25 11:44:09;;;;;;;;;;;;;;;;;;5157634;27;28401;-90
2022/01/25 11:46:34;;;;;;;;;;;;;;;;;;5157628;27;27814;-90
2022/01/25 11:48:59;;;;;;;;;;;;;;;;;;5157886;27;28387;-90
2022/01/25 11:51:24;;;;;;;;;;;;;;;;;;5157780;27;28448;-90
2022/01/25 11:53:49;;;;;;;;;;;;;;;;;;5157202;27;28390;-90
2022/01/25 11:56:14;;;;;;;;;;;;;;;;;;5138865;27;28428;-90
2022/01/25 11:58:39;;;;;;;;;;;;;;;;;;5157416;27;28479;-89
2022/01/25 12:01:05;;;;;;;;;;;;;;;;;;5157694;27;28472;-91
2022/01/25 12:03:30;;;;;;;;;;;;;;;;;;5138500;27;28405;-90
2022/01/25 12:05:55;;;;;;;;;;;;;;;;;;5138468;27;28485;-90
2022/01/25 12:08:27;;;;;;;;;;;;;;;;;;5157830;27;28450;-89
2022/01/25 12:10:58;;;;;;;;;;;;;;;;;;5138662;27;28418;-89
2022/01/25 12:13:25;;;;;;;;;;;;;;;;;;5157439;27;28269;-90
2022/01/25 12:15:50;;;;;;;;;;;;;;;;;;5156958;27;27830;-87
2022/01/25 12:18:15;;;;;;;;;;;;;;;;;;5157275;27;28312;-89
2022/01/25 12:20:41;;;;;;;;;;;;;;;;;;5138796;27;28445;-90
2022/01/25 12:23:06;;;;;;;;;;;;;;;;;;5138216;27;28688;-90
2022/01/25 12:25:36;;;;;;;;;;;;;;;;;;5138068;27;28448;-91
2022/01/25 12:28:08;;;;;;;;;;;;;;;;;;5157657;27;28518;-90
2022/01/25 12:30:33;;;;;;;;;;;;;;;;;;5141672;27;28463;-90
2022/01/25 12:33:02;;;;;;;;;;;;;;;;;;5160644;27;28421;-91
2022/01/25 12:35:28;;;;;;;;;;;;;;;;;;5160677;27;28274;-90
2022/01/25 12:37:54;;;;;;;;;;;;;;;;;;5160540;27;28247;-89
2022/01/25 12:40:19;;;;;;;;;;;;;;;;;;5141990;27;28327;-90
2022/01/25 12:42:44;;;;;;;;;;;;;;;;;;5160388;27;29654;-91
2022/01/25 12:45:10;;;;;;;;;;;;;;;;;;5141561;27;28337;-91
2022/01/25 12:47:35;;;;;;;;;;;;;;;;;;5160627;27;27885;-89
2022/01/25 12:50:00;;;;;;;;;;;;;;;;;;5141863;27;27868;-90
2022/01/25 12:52:27;;;;;;;;;;;;;;;;;;5160330;27;28637;-89
2022/01/25 12:54:52;;;;;;;;;;;;;;;;;;5141576;27;28581;-89
2022/01/25 12:57:17;;;;;;;;;;;;;;;;;;5160652;27;28387;-91
2022/01/25 12:59:42;;;;;;;;;;;;;;;;;;5160943;27;28367;-91
2022/01/25 13:02:07;;;;;;;;;;;;;;;;;;5141698;27;30044;-91
2022/01/25 13:04:32;;;;;;;;;;;;;;;;;;5160595;27;28361;-90
2022/01/25 13:06:57;;;;;;;;;;;;;;;;;;5141807;27;28424;-90
2022/01/25 13:09:34;;;;;;;;;;;;;;;;;;5141609;27;28039;-90
2022/01/25 13:16:55;;;;;;;;;;;;;;;;;;5159709;27;27870;-90
2022/01/25 13:19:21;;;;;;;;;;;;;;;;;;5160052;27;28252;-90
2022/01/25 13:21:46;;;;;;;;;;;;;;;;;;5141308;27;30011;-90
2022/01/25 13:24:11;;;;;;;;;;;;;;;;;;5160152;27;28225;-89
2022/01/25 13:26:40;;;;;;;;;;;;;;;;;;5159547;27;28231;-87
2022/01/25 13:30:38;;;;;;;;;;;;;;;;;;5141384;27;28522;-91
2022/01/25 13:31:50;;;;;;;;;;;;;;;;;;5159683;27;28383;-89
2022/01/25 13:34:15;;;;;;;;;;;;;;;;;;5159799;27;28440;-90
2022/01/25 13:36:40;;;;;;;;;;;;;;;;;;5141152;27;28351;-90
2022/01/25 13:39:07;;;;;;;;;;;;;;;;;;5160112;27;28428;-90
2022/01/25 13:41:41;;;;;;;;;;;;;;;;;;5140527;27;28476;-91
2022/01/25 13:46:34;;;;;;;;;;;;;;;;;;5159727;27;28323;-90
2022/01/25 13:48:59;;;;;;;;;;;;;;;;;;5159581;27;27819;-90
2022/01/25 13:51:24;;;;;;;;;;;;;;;;;;5159555;27;28508;-89
2022/01/25 13:53:50;;;;;;;;;;;;;;;;;;5140877;27;28777;-89
2022/01/25 13:56:15;;;;;;;;;;;;;;;;;;5159167;27;28312;-91
2022/01/25 13:58:44;;;;;;;;;;;;;;;;;;5159746;27;28448;-89
2022/01/25 14:01:09;;;;;;;;;;;;;;;;;;5140273;27;29773;-91
2022/01/25 14:03:35;;;;;;;;;;;;;;;;;;5140229;27;28506;-90
2022/01/25 14:06:00;;;;;;;;;;;;;;;;;;5140605;27;28361;-90
2022/01/25 14:08:25;;;;;;;;;;;;;;;;;;5159219;27;28503;-90
2022/01/25 14:10:50;;;;;;;;;;;;;;;;;;5140369;27;34312;-90
2022/01/25 14:21:53;;;;;;;;;;;;;;;;;;5137990;27;28408;-91
2022/01/25 14:24:18;;;;;;;;;;;;;;;;;;5137937;27;28409;-89
2022/01/25 14:26:44;;;;;;;;;;;;;;;;;;5136700;27;28370;-90
2022/01/25 14:29:14;;;;;;;;;;;;;;;;;;5136859;27;28276;-90
2022/01/25 14:31:39;;;;;;;;;;;;;;;;;;5137707;27;28350;-91
2022/01/25 14:34:06;;;;;;;;;;;;;;;;;;5136733;27;28545;-90
2022/01/25 14:36:31;;;;;;;;;;;;;;;;;;5137790;27;28492;-91
2022/01/25 14:38:56;;;;;;;;;;;;;;;;;;5136750;27;28610;-90
2022/01/25 14:41:23;;;;;;;;;;;;;;;;;;5137766;27;28667;-90
2022/01/25 14:43:50;;;;;;;;;;;;;;;;;;5136580;27;28462;-90
2022/01/25 14:46:17;;;;;;;;;;;;;;;;;;5137951;27;28258;-91
2022/01/25 14:48:42;;;;;;;;;;;;;;;;;;5136684;27;28442;-89
2022/01/25 14:51:07;;;;;;;;;;;;;;;;;;5136061;27;29953;-90
2022/01/25 14:53:33;;;;;;;;;;;;;;;;;;5137139;27;28412;-89
2022/01/25 14:56:00;;;;;;;;;;;;;;;;;;5137587;27;28373;-90
2022/01/25 15:01:09;;;;;;;;;;;;;;;;;;5137522;27;27980;-91
2022/01/25 15:03:36;;;;;;;;;;;;;;;;;;5137423;27;28419;-91
2022/01/25 15:06:01;;;;;;;;;;;;;;;;;;5136314;27;28423;-90
2022/01/25 15:08:26;;;;;;;;;;;;;;;;;;5136433;27;28003;-91
2022/01/25 15:10:51;;;;;;;;;;;;;;;;;;5136018;27;30231;-90
2022/01/25 15:13:24;;;;;;;;;;;;;;;;;;5136088;27;28246;-90
2022/01/25 15:15:56;;;;;;;;;;;;;;;;;;5135753;27;28376;-90
2022/01/25 15:18:21;;;;;;;;;;;;;;;;;;5137603;27;28334;-90
2022/01/25 15:20:46;;;;;;;;;;;;;;;;;;5136071;27;31324;-91
2022/01/25 15:23:11;;;;;;;;;;;;;;;;;;5137054;27;28253;-90
2022/01/25 15:25:36;;;;;;;;;;;;;;;;;;5137431;27;28498;-90
2022/01/25 15:28:02;;;;;;;;;;;;;;;;;;5136036;27;35206;-90
2022/01/25 15:30:28;;;;;;;;;;;;;;;;;;5137050;27;28618;-90
2022/01/25 15:32:53;;;;;;;;;;;;;;;;;;5135863;27;28935;-91
2022/01/25 15:35:20;;;;;;;;;;;;;;;;;;5135913;27;28337;-90
2022/01/25 15:37:45;;;;;;;;;;;;;;;;;;5135729;27;27953;-91
2022/01/25 15:40:10;;;;;;;;;;;;;;;;;;5135512;27;29969;-90
2022/01/25 15:42:36;;;;;;;;;;;;;;;;;;5136979;27;28372;-89
2022/01/25 15:45:10;;;;;;;;;;;;;;;;;;5135613;27;28417;-90
2022/01/25 15:47:36;;;;;;;;;;;;;;;;;;5135546;27;28346;-90
2022/01/25 15:50:01;;;;;;;;;;;;;;;;;;5135478;27;30178;-90
2022/01/25 15:52:26;;;;;;;;;;;;;;;;;;5135334;27;28346;-90
2022/01/25 15:54:51;;;;;;;;;;;;;;;;;;5136742;27;28444;-90
2022/01/25 15:57:16;;;;;;;;;;;;;;;;;;5137114;27;28449;-91
2022/01/25 15:59:41;;;;;;;;;;;;;;;;;;5136742;27;29575;-90
2022/01/25 16:02:11;;;;;;;;;;;;;;;;;;5136869;27;28391;-91
2022/01/25 16:04:41;;;;;;;;;;;;;;;;;;5138887;27;28451;-91
2022/01/25 16:07:06;;;;;;;;;;;;;;;;;;5139033;27;28394;-90
2022/01/25 16:09:31;;;;;;;;;;;;;;;;;;5139255;27;29604;-90
2022/01/25 16:11:56;;;;;;;;;;;;;;;;;;5140213;27;28430;-91
2022/01/25 16:14:22;;;;;;;;;;;;;;;;;;5140296;27;28374;-89
2022/01/25 16:16:48;;;;;;;;;;;;;;;;;;5140136;27;28364;-90
2022/01/25 16:19:13;;;;;;;;;;;;;;;;;;5138455;27;29843;-90
2022/01/25 16:21:38;;;;;;;;;;;;;;;;;;5140195;27;28250;-90
2022/01/25 16:24:05;;;;;;;;;;;;;;;;;;5138899;27;28337;-90
2022/01/25 16:26:30;;;;;;;;;;;;;;;;;;5138778;27;28321;-91
2022/01/25 16:28:56;;;;;;;;;;;;;;;;;;5138784;27;28730;-91
2022/01/25 16:31:29;;;;;;;;;;;;;;;;;;5138746;27;28411;-91
2022/01/25 16:33:54;;;;;;;;;;;;;;;;;;5139992;27;28355;-92
2022/01/25 16:36:20;;;;;;;;;;;;;;;;;;5130743;27;27895;-93
2022/01/25 16:38:46;;;;;;;;;;;;;;;;;;5125623;27;29995;-91
2022/01/25 16:41:11;;;;;;;;;;;;;;;;;;5123435;27;28357;-90
2022/01/25 16:43:36;;;;;;;;;;;;;;;;;;5124203;27;28327;-93
2022/01/25 16:46:01;;;;;;;;;;;;;;;;;;5122989;27;28537;-89
2022/01/25 16:48:27;;;;;;;;;;;;;;;;;;5141506;27;28406;-87
2022/01/25 16:50:52;;;;;;;;;;;;;;;;;;5140816;27;28344;-89
2022/01/25 16:53:17;;;;;;;;;;;;;;;;;;5121938;27;28540;-92
2022/01/25 16:55:42;;;;;;;;;;;;;;;;;;5121934;27;28530;-88
2022/01/25 16:58:07;;;;;;;;;;;;;;;;;;5121276;27;29825;-92
2022/01/25 17:00:35;;;;;;;;;;;;;;;;;;5139693;27;28415;-90
2022/01/25 17:03:01;;;;;;;;;;;;;;;;;;5121422;27;28483;-91
2022/01/25 17:05:37;;;;;;;;;;;;;;;;;;5121791;27;28380;-94
2022/01/25 17:08:03;;;;;;;;;;;;;;;;;;5122732;27;28647;-87
2022/01/25 17:10:28;;;;;;;;;;;;;;;;;;5121351;27;28544;-88
2022/01/25 17:12:53;;;;;;;;;;;;;;;;;;5121533;27;28373;-85
2022/01/25 17:15:19;;;;;;;;;;;;;;;;;;5138380;27;28529;-86
2022/01/25 17:17:44;;;;;;;;;;;;;;;;;;5140057;27;29818;-93
2022/01/25 17:20:09;;;;;;;;;;;;;;;;;;5124113;27;28429;-87
2022/01/25 17:22:34;;;;;;;;;;;;;;;;;;5141173;27;28425;-93
2022/01/25 17:24:59;;;;;;;;;;;;;;;;;;5155942;27;28310;-92
2022/01/25 17:27:24;;;;;;;;;;;;;;;;;;5144435;27;29720;-92
2022/01/25 17:29:49;;;;;;;;;;;;;;;;;;5140854;27;28984;-92
2022/01/25 17:32:15;;;;;;;;;;;;;;;;;;5140378;27;27816;-92
2022/01/25 17:34:40;;;;;;;;;;;;;;;;;;5140141;27;28408;-92
2022/01/25 17:37:05;;;;;;;;;;;;;;;;;;5139478;27;30996;-86
2022/01/25 17:39:41;;;;;;;;;;;;;;;;;;5141473;27;28349;-92
2022/01/25 17:42:07;;;;;;;;;;;;;;;;;;5139537;27;28406;-93
2022/01/25 17:44:32;;;;;;;;;;;;;;;;;;5139551;27;28028;-93
2022/01/25 17:46:57;;;;;;;;;;;;;;;;;;5139213;27;30076;-92
2022/01/25 17:49:22;;;;;;;;;;;;;;;;;;5139328;27;28455;-89
2022/01/25 17:51:55;;;;;;;;;;;;;;;;;;5138380;27;27826;-91
2022/01/25 17:54:21;;;;;;;;;;;;;;;;;;5138250;27;27921;-92
2022/01/25 17:56:46;;;;;;;;;;;;;;;;;;5137744;27;29855;-93
2022/01/25 17:59:18;;;;;;;;;;;;;;;;;;5137258;27;28251;-91
2022/01/25 18:01:44;;;;;;;;;;;;;;;;;;5137640;27;28641;-92
2022/01/25 18:04:10;;;;;;;;;;;;;;;;;;5138909;27;28318;-90
2022/01/25 18:06:36;;;;;;;;;;;;;;;;;;5137591;27;30899;-90
2022/01/25 18:09:01;;;;;;;;;;;;;;;;;;5137406;27;28717;-91
2022/01/25 18:11:27;;;;;;;;;;;;;;;;;;5137383;27;28402;-90
2022/01/25 18:13:52;;;;;;;;;;;;;;;;;;5138975;27;28421;-90
2022/01/25 18:16:17;;;;;;;;;;;;;;;;;;5137164;27;30744;-91
2022/01/25 18:18:45;;;;;;;;;;;;;;;;;;5137574;27;28235;-90
2022/01/25 18:21:10;;;;;;;;;;;;;;;;;;5137604;27;28401;-88
2022/01/25 18:23:44;;;;;;;;;;;;;;;;;;5138319;27;28413;-90